sensor_id;sensor_type;location;lat;lon;timestamp;temperature;humidity
31131;DHT22;20292;50.944;4.034;2022-07-23T00:02:25;19.20;99.90
31131;DHT22;20292;50.944;4.034;2022-07-23T00:04:51;19.20;99.90
31131;DHT22;20292;50.944;4.034;2022-07-23T00:07:16;19.20;99.90
31131;DHT22;20292;50.944;4.034;2022-07-23T00:09:42;19.20;99.90
31131;DHT22;20292;50.944;4.034;2022-07-23T00:12:08;19.30;99.90
31131;DHT22;20292;50.944;4.034;2022-07-23T00:14:34;19.10;99.90
31131;DHT22;20292;50.944;4.034;2022-07-23T00:16:59;19.10;99.90
31131;DHT22;20292;50.944;4.034;2022-07-23T00:19:25;19.10;99.90
31131;DHT22;20292;50.944;4.034;2022-07-23T00:21:51;18.90;99.90
31131;DHT22;20292;50.944;4.034;2022-07-23T00:24:16;19.00;99.90
31131;DHT22;20292;50.944;4.034;2022-07-23T00:26:42;19.00;99.90
31131;DHT22;20292;50.944;4.034;2022-07-23T00:29:08;18.90;99.90
31131;DHT22;20292;50.944;4.034;2022-07-23T00:31:33;18.90;99.90
31131;DHT22;20292;50.944;4.034;2022-07-23T00:33:59;18.90;99.90
31131;DHT22;20292;50.944;4.034;2022-07-23T00:36:27;18.80;99.90
31131;DHT22;20292;50.944;4.034;2022-07-23T00:38:53;18.80;99.90
31131;DHT22;20292;50.944;4.034;2022-07-23T00:41:18;18.80;99.90
31131;DHT22;20292;50.944;4.034;2022-07-23T00:43:44;18.80;99.90
31131;DHT22;20292;50.944;4.034;2022-07-23T00:46:10;18.80;99.90
31131;DHT22;20292;50.944;4.034;2022-07-23T00:48:35;18.80;99.90
31131;DHT22;20292;50.944;4.034;2022-07-23T00:51:01;18.80;99.90
31131;DHT22;20292;50.944;4.034;2022-07-23T00:53:27;18.80;99.90
31131;DHT22;20292;50.944;4.034;2022-07-23T00:55:53;18.80;99.90
31131;DHT22;20292;50.944;4.034;2022-07-23T00:58:19;18.80;99.90
31131;DHT22;20292;50.944;4.034;2022-07-23T01:00:45;18.80;99.90
31131;DHT22;20292;50.944;4.034;2022-07-23T01:03:11;18.80;99.90
31131;DHT22;20292;50.944;4.034;2022-07-23T01:05:37;18.80;99.90
31131;DHT22;20292;50.944;4.034;2022-07-23T01:08:05;18.80;99.90
31131;DHT22;20292;50.944;4.034;2022-07-23T01:10:31;18.80;99.90
31131;DHT22;20292;50.944;4.034;2022-07-23T01:13:00;18.80;99.90
31131;DHT22;20292;50.944;4.034;2022-07-23T01:15:26;18.80;99.90
31131;DHT22;20292;50.944;4.034;2022-07-23T01:17:52;18.80;99.90
31131;DHT22;20292;50.944;4.034;2022-07-23T01:20:18;18.70;99.90
31131;DHT22;20292;50.944;4.034;2022-07-23T01:22:45;18.60;99.90
31131;DHT22;20292;50.944;4.034;2022-07-23T01:25:10;18.60;99.90
31131;DHT22;20292;50.944;4.034;2022-07-23T01:27:36;18.60;99.90
31131;DHT22;20292;50.944;4.034;2022-07-23T01:30:02;18.60;99.90
31131;DHT22;20292;50.944;4.034;2022-07-23T01:32:28;18.60;99.90
31131;DHT22;20292;50.944;4.034;2022-07-23T01:34:54;18.50;99.90
31131;DHT22;20292;50.944;4.034;2022-07-23T01:37:19;18.50;99.90
31131;DHT22;20292;50.944;4.034;2022-07-23T01:39:45;18.50;99.90
31131;DHT22;20292;50.944;4.034;2022-07-23T01:42:10;18.50;99.90
31131;DHT22;20292;50.944;4.034;2022-07-23T01:44:36;18.50;99.90
31131;DHT22;20292;50.944;4.034;2022-07-23T01:47:02;18.50;99.90
31131;DHT22;20292;50.944;4.034;2022-07-23T01:49:27;18.50;99.90
31131;DHT22;20292;50.944;4.034;2022-07-23T01:51:53;18.50;99.90
31131;DHT22;20292;50.944;4.034;2022-07-23T01:54:26;18.40;99.90
31131;DHT22;20292;50.944;4.034;2022-07-23T01:56:51;18.30;99.90
31131;DHT22;20292;50.944;4.034;2022-07-23T01:59:17;18.10;99.90
31131;DHT22;20292;50.944;4.034;2022-07-23T02:01:42;18.10;99.90
31131;DHT22;20292;50.944;4.034;2022-07-23T02:04:08;18.10;99.90
31131;DHT22;20292;50.944;4.034;2022-07-23T02:06:34;18.20;99.90
31131;DHT22;20292;50.944;4.034;2022-07-23T02:08:59;18.20;99.90
31131;DHT22;20292;50.944;4.034;2022-07-23T02:11:25;18.20;99.90
31131;DHT22;20292;50.944;4.034;2022-07-23T02:13:50;18.30;99.90
31131;DHT22;20292;50.944;4.034;2022-07-23T02:16:16;18.30;99.90
31131;DHT22;20292;50.944;4.034;2022-07-23T02:18:42;18.30;99.90
31131;DHT22;20292;50.944;4.034;2022-07-23T02:21:07;18.30;99.90
31131;DHT22;20292;50.944;4.034;2022-07-23T02:23:33;18.30;99.90
31131;DHT22;20292;50.944;4.034;2022-07-23T02:25:59;18.20;99.90
31131;DHT22;20292;50.944;4.034;2022-07-23T02:28:24;18.20;99.90
31131;DHT22;20292;50.944;4.034;2022-07-23T02:30:50;18.20;99.90
31131;DHT22;20292;50.944;4.034;2022-07-23T02:33:16;18.10;99.90
31131;DHT22;20292;50.944;4.034;2022-07-23T02:35:41;18.10;99.90
31131;DHT22;20292;50.944;4.034;2022-07-23T02:38:07;18.10;99.90
31131;DHT22;20292;50.944;4.034;2022-07-23T02:40:33;18.10;99.90
31131;DHT22;20292;50.944;4.034;2022-07-23T02:42:58;18.10;99.90
31131;DHT22;20292;50.944;4.034;2022-07-23T02:45:24;18.10;99.90
31131;DHT22;20292;50.944;4.034;2022-07-23T02:47:50;18.00;99.90
31131;DHT22;20292;50.944;4.034;2022-07-23T02:50:15;17.90;99.90
31131;DHT22;20292;50.944;4.034;2022-07-23T02:52:41;17.90;99.90
31131;DHT22;20292;50.944;4.034;2022-07-23T02:55:07;17.90;99.90
31131;DHT22;20292;50.944;4.034;2022-07-23T02:57:32;17.90;99.90
31131;DHT22;20292;50.944;4.034;2022-07-23T02:59:58;17.80;99.90
31131;DHT22;20292;50.944;4.034;2022-07-23T03:02:24;17.80;99.90
31131;DHT22;20292;50.944;4.034;2022-07-23T03:04:50;17.80;99.90
31131;DHT22;20292;50.944;4.034;2022-07-23T03:07:17;17.90;99.90
31131;DHT22;20292;50.944;4.034;2022-07-23T03:09:42;17.90;99.90
31131;DHT22;20292;50.944;4.034;2022-07-23T03:12:08;17.90;99.90
31131;DHT22;20292;50.944;4.034;2022-07-23T03:14:34;17.80;99.90
31131;DHT22;20292;50.944;4.034;2022-07-23T03:16:59;17.90;99.90
31131;DHT22;20292;50.944;4.034;2022-07-23T03:19:26;17.80;99.90
31131;DHT22;20292;50.944;4.034;2022-07-23T03:21:52;17.80;99.90
31131;DHT22;20292;50.944;4.034;2022-07-23T03:24:17;17.80;99.90
31131;DHT22;20292;50.944;4.034;2022-07-23T03:26:43;17.80;99.90
31131;DHT22;20292;50.944;4.034;2022-07-23T03:29:09;17.80;99.90
31131;DHT22;20292;50.944;4.034;2022-07-23T03:31:35;17.80;99.90
31131;DHT22;20292;50.944;4.034;2022-07-23T03:34:01;17.70;99.90
31131;DHT22;20292;50.944;4.034;2022-07-23T03:36:27;17.80;99.90
31131;DHT22;20292;50.944;4.034;2022-07-23T03:38:53;17.70;99.90
31131;DHT22;20292;50.944;4.034;2022-07-23T03:41:19;17.70;99.90
31131;DHT22;20292;50.944;4.034;2022-07-23T03:43:45;17.70;99.90
31131;DHT22;20292;50.944;4.034;2022-07-23T03:46:11;17.60;99.90
31131;DHT22;20292;50.944;4.034;2022-07-23T03:48:37;17.60;99.90
31131;DHT22;20292;50.944;4.034;2022-07-23T03:51:03;17.60;99.90
31131;DHT22;20292;50.944;4.034;2022-07-23T03:53:29;17.60;99.90
31131;DHT22;20292;50.944;4.034;2022-07-23T03:55:55;17.60;99.90
31131;DHT22;20292;50.944;4.034;2022-07-23T03:58:21;17.60;99.90
31131;DHT22;20292;50.944;4.034;2022-07-23T04:00:46;17.60;99.90
31131;DHT22;20292;50.944;4.034;2022-07-23T04:03:12;17.60;99.90
31131;DHT22;20292;50.944;4.034;2022-07-23T04:05:37;17.70;99.90
31131;DHT22;20292;50.944;4.034;2022-07-23T04:08:03;17.70;99.90
31131;DHT22;20292;50.944;4.034;2022-07-23T04:10:29;17.70;99.90
31131;DHT22;20292;50.944;4.034;2022-07-23T04:12:55;17.70;99.90
31131;DHT22;20292;50.944;4.034;2022-07-23T04:15:20;17.80;99.90
31131;DHT22;20292;50.944;4.034;2022-07-23T04:17:46;17.70;99.90
31131;DHT22;20292;50.944;4.034;2022-07-23T04:20:12;17.80;99.90
31131;DHT22;20292;50.944;4.034;2022-07-23T04:22:38;17.90;99.90
31131;DHT22;20292;50.944;4.034;2022-07-23T04:25:04;17.90;99.90
31131;DHT22;20292;50.944;4.034;2022-07-23T04:27:30;17.90;99.90
31131;DHT22;20292;50.944;4.034;2022-07-23T04:29:55;18.00;99.90
31131;DHT22;20292;50.944;4.034;2022-07-23T04:32:21;18.10;99.90
31131;DHT22;20292;50.944;4.034;2022-07-23T04:34:46;18.20;99.90
31131;DHT22;20292;50.944;4.034;2022-07-23T04:37:12;18.20;99.90
31131;DHT22;20292;50.944;4.034;2022-07-23T04:39:38;18.10;99.90
31131;DHT22;20292;50.944;4.034;2022-07-23T04:42:03;18.30;99.90
31131;DHT22;20292;50.944;4.034;2022-07-23T04:44:29;18.30;99.90
31131;DHT22;20292;50.944;4.034;2022-07-23T04:46:55;18.50;99.90
31131;DHT22;20292;50.944;4.034;2022-07-23T04:49:21;18.70;99.90
31131;DHT22;20292;50.944;4.034;2022-07-23T04:51:46;18.90;99.90
31131;DHT22;20292;50.944;4.034;2022-07-23T04:54:12;19.40;99.90
31131;DHT22;20292;50.944;4.034;2022-07-23T04:56:37;19.90;99.90
31131;DHT22;20292;50.944;4.034;2022-07-23T04:59:03;20.40;99.90
31131;DHT22;20292;50.944;4.034;2022-07-23T05:01:29;21.00;99.90
31131;DHT22;20292;50.944;4.034;2022-07-23T05:03:54;21.50;99.90
31131;DHT22;20292;50.944;4.034;2022-07-23T05:06:20;22.10;99.90
31131;DHT22;20292;50.944;4.034;2022-07-23T05:08:46;22.60;99.90
31131;DHT22;20292;50.944;4.034;2022-07-23T05:11:11;22.70;99.90
31131;DHT22;20292;50.944;4.034;2022-07-23T05:13:37;22.40;99.90
31131;DHT22;20292;50.944;4.034;2022-07-23T05:16:02;22.20;99.90
31131;DHT22;20292;50.944;4.034;2022-07-23T05:18:28;22.00;99.90
31131;DHT22;20292;50.944;4.034;2022-07-23T05:20:54;21.80;99.90
31131;DHT22;20292;50.944;4.034;2022-07-23T05:23:19;21.70;99.90
31131;DHT22;20292;50.944;4.034;2022-07-23T05:25:45;21.50;99.90
31131;DHT22;20292;50.944;4.034;2022-07-23T05:28:11;21.40;99.90
31131;DHT22;20292;50.944;4.034;2022-07-23T05:30:36;21.20;99.90
31131;DHT22;20292;50.944;4.034;2022-07-23T05:33:02;21.10;99.90
31131;DHT22;20292;50.944;4.034;2022-07-23T05:35:28;21.00;99.90
31131;DHT22;20292;50.944;4.034;2022-07-23T05:37:53;21.10;99.90
31131;DHT22;20292;50.944;4.034;2022-07-23T05:40:19;21.30;99.90
31131;DHT22;20292;50.944;4.034;2022-07-23T05:42:44;21.90;99.90
31131;DHT22;20292;50.944;4.034;2022-07-23T05:45:10;23.00;99.90
31131;DHT22;20292;50.944;4.034;2022-07-23T05:47:54;23.80;99.90
31131;DHT22;20292;50.944;4.034;2022-07-23T05:50:20;24.70;99.90
31131;DHT22;20292;50.944;4.034;2022-07-23T05:52:45;25.70;99.90
31131;DHT22;20292;50.944;4.034;2022-07-23T05:55:11;26.40;99.90
31131;DHT22;20292;50.944;4.034;2022-07-23T05:57:37;27.10;99.90
31131;DHT22;20292;50.944;4.034;2022-07-23T06:00:05;27.80;99.90
31131;DHT22;20292;50.944;4.034;2022-07-23T06:02:31;27.40;99.90
31131;DHT22;20292;50.944;4.034;2022-07-23T06:04:56;26.70;99.90
31131;DHT22;20292;50.944;4.034;2022-07-23T06:07:22;26.10;99.90
31131;DHT22;20292;50.944;4.034;2022-07-23T06:09:48;25.50;99.90
31131;DHT22;20292;50.944;4.034;2022-07-23T06:12:15;25.20;99.90
31131;DHT22;20292;50.944;4.034;2022-07-23T06:14:40;25.20;99.90
31131;DHT22;20292;50.944;4.034;2022-07-23T06:17:06;25.30;99.90
31131;DHT22;20292;50.944;4.034;2022-07-23T06:19:32;26.10;99.90
31131;DHT22;20292;50.944;4.034;2022-07-23T06:21:57;27.40;99.90
31131;DHT22;20292;50.944;4.034;2022-07-23T06:24:23;28.30;99.90
31131;DHT22;20292;50.944;4.034;2022-07-23T06:26:49;28.90;99.90
31131;DHT22;20292;50.944;4.034;2022-07-23T06:29:14;29.70;99.90
31131;DHT22;20292;50.944;4.034;2022-07-23T06:31:40;29.50;99.90
31131;DHT22;20292;50.944;4.034;2022-07-23T06:34:05;30.30;99.90
31131;DHT22;20292;50.944;4.034;2022-07-23T06:36:31;30.80;99.90
31131;DHT22;20292;50.944;4.034;2022-07-23T06:38:56;30.80;99.90
31131;DHT22;20292;50.944;4.034;2022-07-23T06:41:22;28.90;99.90
31131;DHT22;20292;50.944;4.034;2022-07-23T06:43:48;26.70;99.90
31131;DHT22;20292;50.944;4.034;2022-07-23T06:46:14;26.30;99.90
31131;DHT22;20292;50.944;4.034;2022-07-23T06:48:40;27.10;99.90
31131;DHT22;20292;50.944;4.034;2022-07-23T06:51:05;26.70;99.90
31131;DHT22;20292;50.944;4.034;2022-07-23T06:53:31;26.20;99.90
31131;DHT22;20292;50.944;4.034;2022-07-23T06:55:57;26.70;99.90
31131;DHT22;20292;50.944;4.034;2022-07-23T06:58:22;27.50;99.90
31131;DHT22;20292;50.944;4.034;2022-07-23T07:00:48;28.40;99.90
31131;DHT22;20292;50.944;4.034;2022-07-23T07:03:13;29.80;99.90
31131;DHT22;20292;50.944;4.034;2022-07-23T07:05:39;30.00;99.90
31131;DHT22;20292;50.944;4.034;2022-07-23T07:08:05;30.90;99.90
31131;DHT22;20292;50.944;4.034;2022-07-23T07:10:31;32.50;99.90
31131;DHT22;20292;50.944;4.034;2022-07-23T07:12:57;33.50;99.90
31131;DHT22;20292;50.944;4.034;2022-07-23T07:15:23;34.10;97.00
31131;DHT22;20292;50.944;4.034;2022-07-23T07:17:48;34.10;96.00
31131;DHT22;20292;50.944;4.034;2022-07-23T07:20:14;34.00;95.40
31131;DHT22;20292;50.944;4.034;2022-07-23T07:22:40;34.50;94.40
31131;DHT22;20292;50.944;4.034;2022-07-23T07:25:06;35.10;92.60
31131;DHT22;20292;50.944;4.034;2022-07-23T07:27:32;35.10;91.90
31131;DHT22;20292;50.944;4.034;2022-07-23T07:29:57;35.50;91.20
31131;DHT22;20292;50.944;4.034;2022-07-23T07:32:23;35.70;90.20
31131;DHT22;20292;50.944;4.034;2022-07-23T07:34:49;35.90;88.50
31131;DHT22;20292;50.944;4.034;2022-07-23T07:37:14;34.70;89.90
31131;DHT22;20292;50.944;4.034;2022-07-23T07:39:40;34.90;90.00
31131;DHT22;20292;50.944;4.034;2022-07-23T07:42:06;34.80;90.30
31131;DHT22;20292;50.944;4.034;2022-07-23T07:44:31;34.80;90.50
31131;DHT22;20292;50.944;4.034;2022-07-23T07:46:57;35.20;89.40
31131;DHT22;20292;50.944;4.034;2022-07-23T07:49:22;35.50;88.20
31131;DHT22;20292;50.944;4.034;2022-07-23T07:51:49;35.70;86.50
31131;DHT22;20292;50.944;4.034;2022-07-23T07:54:15;36.10;85.10
31131;DHT22;20292;50.944;4.034;2022-07-23T07:56:41;35.60;82.70
31131;DHT22;20292;50.944;4.034;2022-07-23T07:59:06;36.20;81.40
31131;DHT22;20292;50.944;4.034;2022-07-23T08:01:32;35.40;83.70
31131;DHT22;20292;50.944;4.034;2022-07-23T08:03:58;35.30;86.10
31131;DHT22;20292;50.944;4.034;2022-07-23T08:06:23;35.40;85.40
31131;DHT22;20292;50.944;4.034;2022-07-23T08:08:49;35.60;84.00
31131;DHT22;20292;50.944;4.034;2022-07-23T08:11:15;35.70;83.30
31131;DHT22;20292;50.944;4.034;2022-07-23T08:13:40;36.20;82.20
31131;DHT22;20292;50.944;4.034;2022-07-23T08:16:06;36.50;79.80
31131;DHT22;20292;50.944;4.034;2022-07-23T08:18:32;36.50;79.80
31131;DHT22;20292;50.944;4.034;2022-07-23T08:20:58;36.50;77.40
31131;DHT22;20292;50.944;4.034;2022-07-23T08:23:23;36.40;76.10
31131;DHT22;20292;50.944;4.034;2022-07-23T08:25:49;36.20;77.00
31131;DHT22;20292;50.944;4.034;2022-07-23T08:28:15;36.40;74.80
31131;DHT22;20292;50.944;4.034;2022-07-23T08:30:42;35.30;73.00
31131;DHT22;20292;50.944;4.034;2022-07-23T08:33:11;34.20;78.80
31131;DHT22;20292;50.944;4.034;2022-07-23T08:35:40;34.50;78.40
31131;DHT22;20292;50.944;4.034;2022-07-23T08:38:09;34.50;78.40
31131;DHT22;20292;50.944;4.034;2022-07-23T08:40:37;32.70;79.30
31131;DHT22;20292;50.944;4.034;2022-07-23T08:43:10;32.30;82.50
31131;DHT22;20292;50.944;4.034;2022-07-23T08:45:38;32.30;82.40
31131;DHT22;20292;50.944;4.034;2022-07-23T08:48:11;32.00;83.50
31131;DHT22;20292;50.944;4.034;2022-07-23T08:50:37;32.80;81.60
31131;DHT22;20292;50.944;4.034;2022-07-23T08:53:06;33.70;79.40
31131;DHT22;20292;50.944;4.034;2022-07-23T08:55:32;34.10;78.80
31131;DHT22;20292;50.944;4.034;2022-07-23T08:57:58;32.30;79.70
31131;DHT22;20292;50.944;4.034;2022-07-23T09:00:23;30.70;85.00
31131;DHT22;20292;50.944;4.034;2022-07-23T09:02:50;30.20;86.90
31131;DHT22;20292;50.944;4.034;2022-07-23T09:05:16;30.60;86.90
31131;DHT22;20292;50.944;4.034;2022-07-23T09:10:29;32.10;81.80
31131;DHT22;20292;50.944;4.034;2022-07-23T09:12:55;31.20;82.30
31131;DHT22;20292;50.944;4.034;2022-07-23T09:15:20;31.80;81.50
31131;DHT22;20292;50.944;4.034;2022-07-23T09:17:46;32.40;79.10
31131;DHT22;20292;50.944;4.034;2022-07-23T09:20:15;30.40;84.10
31131;DHT22;20292;50.944;4.034;2022-07-23T09:22:45;29.60;87.80
31131;DHT22;20292;50.944;4.034;2022-07-23T09:25:16;28.40;90.40
31131;DHT22;20292;50.944;4.034;2022-07-23T09:27:57;28.70;91.90
31131;DHT22;20292;50.944;4.034;2022-07-23T09:30:28;28.80;91.00
31131;DHT22;20292;50.944;4.034;2022-07-23T09:33:14;29.40;90.30
31131;DHT22;20292;50.944;4.034;2022-07-23T09:35:47;30.70;86.80
31131;DHT22;20292;50.944;4.034;2022-07-23T09:38:14;31.30;83.40
31131;DHT22;20292;50.944;4.034;2022-07-23T09:40:39;31.90;81.20
31131;DHT22;20292;50.944;4.034;2022-07-23T09:43:05;32.00;80.30
31131;DHT22;20292;50.944;4.034;2022-07-23T09:45:31;32.40;79.60
31131;DHT22;20292;50.944;4.034;2022-07-23T09:48:16;31.90;79.40
31131;DHT22;20292;50.944;4.034;2022-07-23T09:50:44;31.30;79.90
31131;DHT22;20292;50.944;4.034;2022-07-23T09:53:24;31.50;80.10
31131;DHT22;20292;50.944;4.034;2022-07-23T09:55:51;29.60;83.00
31131;DHT22;20292;50.944;4.034;2022-07-23T09:58:20;29.50;84.50
31131;DHT22;20292;50.944;4.034;2022-07-23T10:00:47;29.40;85.50
31131;DHT22;20292;50.944;4.034;2022-07-23T10:03:15;30.00;84.60
31131;DHT22;20292;50.944;4.034;2022-07-23T10:05:42;30.20;83.90
31131;DHT22;20292;50.944;4.034;2022-07-23T10:08:11;28.90;87.50
31131;DHT22;20292;50.944;4.034;2022-07-23T10:10:39;28.30;90.60
31131;DHT22;20292;50.944;4.034;2022-07-23T10:13:05;28.10;90.90
31131;DHT22;20292;50.944;4.034;2022-07-23T10:15:46;27.60;90.90
31131;DHT22;20292;50.944;4.034;2022-07-23T10:18:12;27.90;90.80
31131;DHT22;20292;50.944;4.034;2022-07-23T10:20:39;28.60;90.20
31131;DHT22;20292;50.944;4.034;2022-07-23T10:23:31;28.70;90.00
31131;DHT22;20292;50.944;4.034;2022-07-23T10:26:11;28.20;89.80
31131;DHT22;20292;50.944;4.034;2022-07-23T10:34:18;28.90;89.20
31131;DHT22;20292;50.944;4.034;2022-07-23T10:36:56;29.20;88.40
31131;DHT22;20292;50.944;4.034;2022-07-23T10:39:31;28.70;88.10
31131;DHT22;20292;50.944;4.034;2022-07-23T10:42:14;28.40;89.30
31131;DHT22;20292;50.944;4.034;2022-07-23T10:44:46;28.00;90.60
31131;DHT22;20292;50.944;4.034;2022-07-23T10:47:20;27.50;90.40
31131;DHT22;20292;50.944;4.034;2022-07-23T10:49:52;27.60;90.90
31131;DHT22;20292;50.944;4.034;2022-07-23T10:52:23;27.70;90.50
31131;DHT22;20292;50.944;4.034;2022-07-23T10:57:50;27.20;91.40
31131;DHT22;20292;50.944;4.034;2022-07-23T11:00:20;27.20;91.50
31131;DHT22;20292;50.944;4.034;2022-07-23T11:02:48;27.10;91.60
31131;DHT22;20292;50.944;4.034;2022-07-23T11:05:17;26.90;92.40
31131;DHT22;20292;50.944;4.034;2022-07-23T11:10:35;27.00;91.70
31131;DHT22;20292;50.944;4.034;2022-07-23T11:13:36;27.10;92.30
31131;DHT22;20292;50.944;4.034;2022-07-23T11:21:40;27.10;92.00
31131;DHT22;20292;50.944;4.034;2022-07-23T11:24:15;26.80;92.40
31131;DHT22;20292;50.944;4.034;2022-07-23T11:31:57;26.10;94.00
31131;DHT22;20292;50.944;4.034;2022-07-23T11:34:33;26.10;93.70
31131;DHT22;20292;50.944;4.034;2022-07-23T11:37:00;26.10;94.10
31131;DHT22;20292;50.944;4.034;2022-07-23T11:39:28;25.90;94.40
31131;DHT22;20292;50.944;4.034;2022-07-23T11:41:55;25.90;94.30
31131;DHT22;20292;50.944;4.034;2022-07-23T11:44:33;26.10;94.40
31131;DHT22;20292;50.944;4.034;2022-07-23T11:47:01;26.10;94.60
31131;DHT22;20292;50.944;4.034;2022-07-23T11:49:28;26.30;94.10
31131;DHT22;20292;50.944;4.034;2022-07-23T11:54:33;26.30;94.00
31131;DHT22;20292;50.944;4.034;2022-07-23T11:56:59;26.10;94.90
31131;DHT22;20292;50.944;4.034;2022-07-23T11:59:31;26.20;94.70
31131;DHT22;20292;50.944;4.034;2022-07-23T12:04:23;26.60;94.80
31131;DHT22;20292;50.944;4.034;2022-07-23T12:06:49;26.40;94.50
31131;DHT22;20292;50.944;4.034;2022-07-23T12:09:15;26.40;94.20
31131;DHT22;20292;50.944;4.034;2022-07-23T12:11:57;26.60;94.10
31131;DHT22;20292;50.944;4.034;2022-07-23T12:14:23;26.90;93.60
31131;DHT22;20292;50.944;4.034;2022-07-23T12:17:07;27.20;93.20
31131;DHT22;20292;50.944;4.034;2022-07-23T12:19:33;27.50;92.90
31131;DHT22;20292;50.944;4.034;2022-07-23T12:21:58;27.70;92.50
31131;DHT22;20292;50.944;4.034;2022-07-23T12:24:24;27.90;92.40
31131;DHT22;20292;50.944;4.034;2022-07-23T12:27:12;28.10;92.10
31131;DHT22;20292;50.944;4.034;2022-07-23T12:29:39;28.20;91.50
31131;DHT22;20292;50.944;4.034;2022-07-23T12:32:20;28.20;91.20
31131;DHT22;20292;50.944;4.034;2022-07-23T12:34:48;28.40;91.70
31131;DHT22;20292;50.944;4.034;2022-07-23T12:37:33;28.30;91.30
31131;DHT22;20292;50.944;4.034;2022-07-23T12:40:17;28.10;91.10
31131;DHT22;20292;50.944;4.034;2022-07-23T12:42:43;27.80;91.40
31131;DHT22;20292;50.944;4.034;2022-07-23T12:45:10;27.60;92.00
31131;DHT22;20292;50.944;4.034;2022-07-23T12:48:03;27.70;92.40
31131;DHT22;20292;50.944;4.034;2022-07-23T12:50:36;27.70;92.20
31131;DHT22;20292;50.944;4.034;2022-07-23T12:53:38;27.70;92.80
31131;DHT22;20292;50.944;4.034;2022-07-23T12:56:06;27.80;92.30
31131;DHT22;20292;50.944;4.034;2022-07-23T12:58:41;27.70;92.40
31131;DHT22;20292;50.944;4.034;2022-07-23T13:01:07;27.90;92.10
31131;DHT22;20292;50.944;4.034;2022-07-23T13:03:40;28.30;91.60
31131;DHT22;20292;50.944;4.034;2022-07-23T13:06:10;28.60;91.00
31131;DHT22;20292;50.944;4.034;2022-07-23T13:08:38;28.80;90.50
31131;DHT22;20292;50.944;4.034;2022-07-23T13:11:05;29.00;90.10
31131;DHT22;20292;50.944;4.034;2022-07-23T13:13:34;29.20;90.10
31131;DHT22;20292;50.944;4.034;2022-07-23T13:16:00;29.40;90.00
31131;DHT22;20292;50.944;4.034;2022-07-23T13:18:26;29.50;89.10
31131;DHT22;20292;50.944;4.034;2022-07-23T13:20:52;29.70;89.00
31131;DHT22;20292;50.944;4.034;2022-07-23T13:23:18;29.70;89.40
31131;DHT22;20292;50.944;4.034;2022-07-23T13:25:45;29.60;90.40
31131;DHT22;20292;50.944;4.034;2022-07-23T13:28:11;29.70;90.20
31131;DHT22;20292;50.944;4.034;2022-07-23T13:30:38;29.60;90.30
31131;DHT22;20292;50.944;4.034;2022-07-23T13:33:04;29.40;90.60
31131;DHT22;20292;50.944;4.034;2022-07-23T13:35:30;29.50;91.00
31131;DHT22;20292;50.944;4.034;2022-07-23T13:37:56;29.60;91.00
31131;DHT22;20292;50.944;4.034;2022-07-23T13:40:21;29.50;91.00
31131;DHT22;20292;50.944;4.034;2022-07-23T13:42:47;29.50;91.00
31131;DHT22;20292;50.944;4.034;2022-07-23T13:45:13;29.50;90.80
31131;DHT22;20292;50.944;4.034;2022-07-23T13:47:39;29.70;90.50
31131;DHT22;20292;50.944;4.034;2022-07-23T13:50:05;29.60;90.60
31131;DHT22;20292;50.944;4.034;2022-07-23T13:52:31;29.50;90.30
31131;DHT22;20292;50.944;4.034;2022-07-23T13:55:00;29.50;90.20
31131;DHT22;20292;50.944;4.034;2022-07-23T13:57:26;29.60;90.50
31131;DHT22;20292;50.944;4.034;2022-07-23T13:59:51;29.70;90.20
31131;DHT22;20292;50.944;4.034;2022-07-23T14:02:17;29.80;90.60
31131;DHT22;20292;50.944;4.034;2022-07-23T14:04:43;29.80;90.20
31131;DHT22;20292;50.944;4.034;2022-07-23T14:07:09;29.80;90.20
31131;DHT22;20292;50.944;4.034;2022-07-23T14:09:35;30.00;90.20
31131;DHT22;20292;50.944;4.034;2022-07-23T14:12:01;30.10;90.30
31131;DHT22;20292;50.944;4.034;2022-07-23T14:14:26;30.20;89.90
31131;DHT22;20292;50.944;4.034;2022-07-23T14:16:52;30.10;89.80
31131;DHT22;20292;50.944;4.034;2022-07-23T14:19:17;29.90;90.10
31131;DHT22;20292;50.944;4.034;2022-07-23T14:21:44;30.00;90.30
31131;DHT22;20292;50.944;4.034;2022-07-23T14:24:09;30.10;90.00
31131;DHT22;20292;50.944;4.034;2022-07-23T14:26:35;30.30;88.30
31131;DHT22;20292;50.944;4.034;2022-07-23T14:29:01;30.40;87.60
31131;DHT22;20292;50.944;4.034;2022-07-23T14:31:27;30.50;87.40
31131;DHT22;20292;50.944;4.034;2022-07-23T14:33:52;30.60;87.50
31131;DHT22;20292;50.944;4.034;2022-07-23T14:36:18;30.60;87.70
31131;DHT22;20292;50.944;4.034;2022-07-23T14:38:44;30.70;86.90
31131;DHT22;20292;50.944;4.034;2022-07-23T14:41:09;30.50;87.90
31131;DHT22;20292;50.944;4.034;2022-07-23T14:43:36;30.30;88.10
31131;DHT22;20292;50.944;4.034;2022-07-23T14:46:02;30.40;88.40
31131;DHT22;20292;50.944;4.034;2022-07-23T14:48:27;30.50;87.70
31131;DHT22;20292;50.944;4.034;2022-07-23T14:50:53;30.60;86.90
31131;DHT22;20292;50.944;4.034;2022-07-23T14:53:19;30.60;87.20
31131;DHT22;20292;50.944;4.034;2022-07-23T14:55:44;30.50;87.90
31131;DHT22;20292;50.944;4.034;2022-07-23T14:58:10;30.40;88.10
31131;DHT22;20292;50.944;4.034;2022-07-23T15:00:35;30.20;88.20
31131;DHT22;20292;50.944;4.034;2022-07-23T15:03:01;30.20;88.00
31131;DHT22;20292;50.944;4.034;2022-07-23T15:05:27;30.10;88.90
31131;DHT22;20292;50.944;4.034;2022-07-23T15:07:54;30.00;89.20
31131;DHT22;20292;50.944;4.034;2022-07-23T15:10:20;29.90;88.90
31131;DHT22;20292;50.944;4.034;2022-07-23T15:12:45;30.00;89.50
31131;DHT22;20292;50.944;4.034;2022-07-23T15:15:11;30.10;87.90
31131;DHT22;20292;50.944;4.034;2022-07-23T15:17:37;30.20;88.90
31131;DHT22;20292;50.944;4.034;2022-07-23T15:20:03;30.30;88.60
31131;DHT22;20292;50.944;4.034;2022-07-23T15:22:28;30.40;87.90
31131;DHT22;20292;50.944;4.034;2022-07-23T15:24:54;30.40;87.80
31131;DHT22;20292;50.944;4.034;2022-07-23T15:27:20;30.20;88.00
31131;DHT22;20292;50.944;4.034;2022-07-23T15:29:45;30.20;88.00
31131;DHT22;20292;50.944;4.034;2022-07-23T15:32:11;30.00;89.00
31131;DHT22;20292;50.944;4.034;2022-07-23T15:34:38;29.70;90.20
31131;DHT22;20292;50.944;4.034;2022-07-23T15:37:04;29.70;90.50
31131;DHT22;20292;50.944;4.034;2022-07-23T15:39:33;29.80;90.20
31131;DHT22;20292;50.944;4.034;2022-07-23T15:42:00;29.70;90.70
31131;DHT22;20292;50.944;4.034;2022-07-23T15:44:26;29.90;90.40
31131;DHT22;20292;50.944;4.034;2022-07-23T15:46:52;30.00;90.30
31131;DHT22;20292;50.944;4.034;2022-07-23T15:49:18;30.10;89.30
31131;DHT22;20292;50.944;4.034;2022-07-23T15:51:43;30.10;89.30
31131;DHT22;20292;50.944;4.034;2022-07-23T15:54:09;30.10;88.90
31131;DHT22;20292;50.944;4.034;2022-07-23T15:56:35;30.20;88.60
31131;DHT22;20292;50.944;4.034;2022-07-23T15:59:00;30.10;90.00
31131;DHT22;20292;50.944;4.034;2022-07-23T16:01:26;30.10;89.90